Time;durP1;ratioP1;P1;durP2;ratioP2;P2;SDS_P1;SDS_P2;PMS_P1;PMS_P2;Temp;Humidity;BMP_temperature;BMP_pressure;BME280_temperature;BME280_humidity;BME280_pressure;Samples;Min_cycle;Max_cycle;Signal;HPM_P1;HPM_P2
2022/05/26 00:01:08;;;;;;;9.40;5.15;;;;;;;17.28;83.69;95599.41;1821301;79;21421;-62
2022/05/26 00:03:38;;;;;;;7.80;4.78;;;;;;;17.28;83.69;95599.41;1821404;79;21519;-62
2022/05/26 00:06:07;;;;;;;5.37;4.70;;;;;;;17.35;83.70;95604.01;1821444;79;21444;-62
2022/05/26 00:08:36;;;;;;;4.58;4.15;;;;;;;17.29;83.12;95611.83;1821275;79;21010;-63
2022/05/26 00:11:06;;;;;;;6.10;5.08;;;;;;;17.28;82.57;95602.55;1821151;79;21046;-63
2022/05/26 00:13:34;;;;;;;5.87;4.40;;;;;;;17.25;83.19;95607.55;1821422;79;20973;-63
2022/05/26 00:16:02;;;;;;;6.47;4.65;;;;;;;17.22;83.53;95605.03;1821054;79;20986;-62
2022/05/26 00:18:29;;;;;;;5.50;5.00;;;;;;;17.19;82.65;95608.31;1821368;79;20995;-62
2022/05/26 00:20:56;;;;;;;5.47;4.87;;;;;;;17.14;82.65;95602.31;1820927;79;21009;-62
2022/05/26 00:23:23;;;;;;;4.87;4.15;;;;;;;17.12;82.48;95609.04;1821078;79;21543;-62
2022/05/26 00:25:49;;;;;;;7.40;4.80;;;;;;;17.02;82.77;95609.91;1821626;79;20978;-62
2022/05/26 00:28:16;;;;;;;4.95;3.98;;;;;;;16.95;84.25;95610.23;1820980;79;20995;-62
2022/05/26 00:30:43;;;;;;;5.97;4.17;;;;;;;16.89;83.35;95615.84;1821411;79;21459;-62
2022/05/26 00:33:10;;;;;;;5.05;3.58;;;;;;;16.80;84.23;95613.09;1821077;79;20994;-62
2022/05/26 00:35:40;;;;;;;4.78;3.17;;;;;;;16.81;83.66;95616.17;1821116;79;21037;-62
2022/05/26 00:38:09;;;;;;;5.12;2.83;;;;;;;16.73;83.08;95623.57;1821309;79;21010;-62
2022/05/26 00:40:38;;;;;;;4.87;2.80;;;;;;;16.62;82.89;95627.55;1821279;79;21010;-62
2022/05/26 00:43:06;;;;;;;3.08;2.70;;;;;;;16.60;82.71;95625.89;1821060;78;21010;-62
2022/05/26 00:45:47;;;;;;;2.83;2.62;;;;;;;16.60;82.96;95629.88;1821343;79;20990;-62
2022/05/26 00:48:18;;;;;;;5.28;3.30;;;;;;;16.58;82.89;95632.63;1796821;79;21015;-62
2022/05/26 00:50:54;;;;;;;3.83;3.08;;;;;;;16.58;82.89;95632.63;1821167;79;21003;-62
2022/05/26 00:53:42;;;;;;;4.20;3.50;;;;;;;16.63;82.80;95637.30;1821173;79;21018;-62
2022/05/26 00:56:40;;;;;;;3.83;3.50;;;;;;;16.65;82.85;95635.88;1821034;79;21464;-63
2022/05/26 00:59:12;;;;;;;6.87;3.58;;;;;;;16.58;82.73;95629.97;1821106;79;21384;-62
2022/05/26 01:01:40;;;;;;;3.72;3.12;;;;;;;16.63;83.14;95637.73;1814380;79;20999;-62
2022/05/26 01:04:11;;;;;;;5.35;3.42;;;;;;;16.65;82.37;95634.08;1821260;79;20993;-62
2022/05/26 01:06:46;;;;;;;8.60;3.50;;;;;;;16.64;81.94;95635.02;1821425;79;21010;-62
2022/05/26 01:09:13;;;;;;;6.25;3.65;;;;;;;16.56;81.68;95640.28;1821198;79;21053;-62
2022/05/26 01:11:43;;;;;;;4.85;3.72;;;;;;;16.46;81.32;95638.45;1821203;79;21054;-62
2022/05/26 01:14:21;;;;;;;5.53;3.45;;;;;;;16.41;82.12;95633.78;1820978;79;21078;-62
2022/05/26 01:17:09;;;;;;;3.92;3.37;;;;;;;16.38;82.20;95648.56;1821273;79;20993;-62
2022/05/26 01:20:05;;;;;;;6.15;3.58;;;;;;;16.27;82.01;95640.13;1821086;79;21002;-62
2022/05/26 01:23:05;;;;;;;3.60;3.30;;;;;;;16.31;82.64;95640.42;1821077;79;21018;-63
2022/05/26 01:25:57;;;;;;;3.85;3.42;;;;;;;16.19;81.83;95630.64;1821406;79;21010;-62
2022/05/26 01:28:44;;;;;;;6.12;3.67;;;;;;;16.07;82.79;95640.91;1821349;79;20960;-62
2022/05/26 01:31:50;;;;;;;4.05;3.58;;;;;;;15.99;82.80;95647.88;1821032;79;21014;-62
2022/05/26 01:34:56;;;;;;;4.62;3.98;;;;;;;15.88;82.85;95653.62;1821428;79;20951;-62
2022/05/26 01:37:52;;;;;;;5.10;3.60;;;;;;;15.81;82.80;95653.44;1755804;81;20979;-62
2022/05/26 01:40:45;;;;;;;4.33;3.47;;;;;;;15.75;83.01;95663.00;1813522;79;20967;-62
2022/05/26 01:43:36;;;;;;;4.10;3.47;;;;;;;15.71;82.81;95664.89;1824618;78;21527;-62
2022/05/26 01:46:36;;;;;;;3.60;3.30;;;;;;;15.67;82.61;95665.88;1831971;78;20962;-62
2022/05/26 01:49:32;;;;;;;4.92;3.52;;;;;;;15.60;82.93;95671.05;1831877;78;21041;-62
2022/05/26 01:52:10;;;;;;;5.60;4.25;;;;;;;15.55;82.74;95670.36;1831525;78;21487;-62
2022/05/26 01:54:59;;;;;;;6.62;4.10;;;;;;;15.45;82.76;95672.48;1828636;78;21046;-62
2022/05/26 01:57:34;;;;;;;8.35;4.15;;;;;;;15.43;82.87;95683.62;1832208;78;20991;-62
2022/05/26 02:00:05;;;;;;;4.50;4.00;;;;;;;15.46;83.27;95678.66;1814511;78;21002;-62
2022/05/26 02:02:37;;;;;;;;;;;;;;;15.48;83.13;95684.80;1833766;78;21050;-62
2022/05/26 02:05:08;;;;;;;8.75;4.17;;;;;;;15.44;83.23;95682.69;1832094;78;20101;-62
2022/05/26 02:07:40;;;;;;;3.85;3.45;;;;;;;15.38;82.92;95680.27;1831136;78;20974;-62
2022/05/26 02:10:15;;;;;;;7.53;4.37;;;;;;;15.30;83.27;95683.67;1832079;78;21065;-62
2022/05/26 02:12:50;;;;;;;4.28;3.20;;;;;;;15.28;83.66;95683.71;1832030;78;20985;-62
2022/05/26 02:15:25;;;;;;;4.35;3.95;;;;;;;15.28;83.38;95677.53;1830911;78;21147;-62
2022/05/26 02:18:00;;;;;;;5.03;3.87;;;;;;;15.25;82.85;95674.52;1831088;78;21057;-62
2022/05/26 02:20:56;;;;;;;5.30;3.52;;;;;;;15.23;82.94;95667.06;1831110;78;21006;-63
2022/05/26 02:23:28;;;;;;;5.50;4.25;;;;;;;15.26;83.31;95663.42;1830782;78;21479;-62
2022/05/26 02:25:55;;;;;;;5.15;3.85;;;;;;;15.20;84.19;95668.50;1831986;78;21614;-62
2022/05/26 02:28:22;;;;;;;8.43;4.22;;;;;;;15.21;84.60;95665.38;1831858;78;21479;-62
2022/05/26 02:30:50;;;;;;;4.28;3.87;;;;;;;15.20;85.00;95667.64;1831977;78;20998;-62
2022/05/26 02:33:18;;;;;;;5.15;4.10;;;;;;;15.19;84.27;95666.75;1831950;78;20974;-62
2022/05/26 02:35:49;;;;;;;5.60;3.40;;;;;;;15.17;84.63;95671.28;1832192;78;21048;-62
2022/05/26 02:38:23;;;;;;;5.22;3.37;;;;;;;15.18;83.87;95665.03;1831901;78;22011;-62
2022/05/26 02:40:53;;;;;;;5.40;4.33;;;;;;;15.16;83.69;95672.19;1831892;78;20990;-62
2022/05/26 02:43:26;;;;;;;4.65;4.00;;;;;;;15.26;84.86;95688.67;1831643;78;21026;-62
2022/05/26 02:46:08;;;;;;;5.87;4.33;;;;;;;15.38;84.78;95678.08;1832096;78;21479;-62
2022/05/26 02:49:11;;;;;;;4.65;3.92;;;;;;;15.41;84.91;95675.30;1831871;78;21029;-62
2022/05/26 02:52:00;;;;;;;4.95;4.37;;;;;;;15.48;84.66;95683.47;1832030;78;21045;-62
2022/05/26 02:54:41;;;;;;;5.60;4.35;;;;;;;15.52;84.04;95675.77;1831554;78;21049;-62
2022/05/26 02:57:33;;;;;;;5.78;4.50;;;;;;;15.49;83.79;95679.87;1831959;78;21049;-62
2022/05/26 03:00:09;;;;;;;8.05;5.87;;;;;;;15.53;84.14;95686.36;1791595;78;21503;-62
2022/05/26 03:02:56;;;;;;;8.30;6.70;;;;;;;15.62;84.87;95685.60;1831802;78;21029;-62
2022/05/26 03:05:48;;;;;;;8.63;6.87;;;;;;;15.64;84.18;95689.08;1831975;78;20989;-62
2022/05/26 03:08:19;;;;;;;5.90;4.60;;;;;;;15.72;84.60;95703.89;1831702;78;21041;-63
2022/05/26 03:10:51;;;;;;;7.50;6.58;;;;;;;15.79;84.49;95696.05;1831961;78;21002;-62
2022/05/26 03:13:18;;;;;;;6.25;5.75;;;;;;;15.83;84.33;95706.61;1831848;78;21587;-62
2022/05/26 03:15:47;;;;;;;8.75;6.00;;;;;;;15.90;84.60;95706.75;1831914;78;21044;-62
2022/05/26 03:18:13;;;;;;;7.62;6.53;;;;;;;15.97;84.62;95711.78;1831893;78;20967;-62
2022/05/26 03:20:40;;;;;;;5.72;5.20;;;;;;;16.01;84.37;95718.73;1831777;78;21041;-62
2022/05/26 03:23:06;;;;;;;6.85;4.58;;;;;;;16.01;85.03;95712.55;1801236;78;21053;-62
2022/05/26 03:25:33;;;;;;;5.53;5.00;;;;;;;15.98;83.92;95725.52;1831937;78;20942;-62
2022/05/26 03:28:00;;;;;;;8.53;4.75;;;;;;;15.91;83.87;95729.80;1831875;78;21006;-62
2022/05/26 03:30:26;;;;;;;6.12;4.75;;;;;;;15.88;83.62;95729.92;1831906;78;20954;-63
2022/05/26 03:32:53;;;;;;;7.15;5.20;;;;;;;15.90;84.72;95733.36;1831927;78;21014;-62
2022/05/26 03:40:55;;;;;;;8.78;5.83;;;;;;;15.86;84.86;95719.79;1832282;78;21016;-62
2022/05/26 03:43:24;;;;;;;10.45;6.28;;;;;;;15.82;85.11;95722.14;1826826;78;21125;-62
2022/05/26 03:45:51;;;;;;;8.50;5.65;;;;;;;15.85;85.21;95720.70;1812517;79;20979;-62
2022/05/26 03:48:18;;;;;;;9.00;5.67;;;;;;;15.99;85.50;95738.36;1821340;79;21027;-62
2022/05/26 03:50:45;;;;;;;12.85;9.95;;;;;;;15.99;85.50;95738.36;1821237;79;21079;-62
2022/05/26 03:53:12;;;;;;;12.35;11.10;;;;;;;16.07;84.98;95744.25;1821030;79;21133;-62
2022/05/26 03:55:40;;;;;;;14.95;12.47;;;;;;;16.11;84.86;95749.02;1821142;79;21019;-62
2022/05/26 03:58:07;;;;;;;14.87;13.38;;;;;;;16.15;84.92;95750.61;1821408;79;20955;-62
2022/05/26 04:00:34;;;;;;;13.80;12.40;;;;;;;16.19;84.91;95753.58;1821049;79;20959;-62
2022/05/26 04:03:01;;;;;;;14.40;12.55;;;;;;;16.23;85.01;95756.53;1821302;79;21046;-62
2022/05/26 04:05:27;;;;;;;15.75;12.68;;;;;;;16.23;84.77;95761.86;1821394;79;21017;-62
2022/05/26 04:07:54;;;;;;;14.23;12.82;;;;;;;16.31;84.90;95765.56;1821302;79;21028;-62
2022/05/26 04:10:21;;;;;;;13.90;12.47;;;;;;;16.37;84.66;95756.85;1821541;79;20955;-62
2022/05/26 04:12:49;;;;;;;14.33;12.58;;;;;;;16.38;84.90;95758.61;1821156;79;21009;-62
2022/05/26 04:15:17;;;;;;;15.80;14.20;;;;;;;16.38;84.90;95758.61;1821214;79;21037;-62
2022/05/26 04:17:44;;;;;;;14.25;11.40;;;;;;;16.52;84.90;95761.19;1821319;79;20970;-62
2022/05/26 04:20:16;;;;;;;13.80;12.30;;;;;;;16.46;84.12;95755.64;1821336;79;20989;-62
2022/05/26 04:22:43;;;;;;;16.20;12.00;;;;;;;16.53;84.58;95767.80;1821472;79;21038;-62
2022/05/26 04:25:11;;;;;;;14.35;12.63;;;;;;;16.71;84.84;95779.99;1821245;79;21519;-62
2022/05/26 04:27:39;;;;;;;14.90;13.40;;;;;;;16.82;85.24;95785.78;1821213;79;21049;-62
2022/05/26 04:30:08;;;;;;;15.45;13.35;;;;;;;16.98;85.33;95778.02;1821214;79;21002;-62
2022/05/26 04:32:36;;;;;;;16.02;14.35;;;;;;;17.05;83.93;95776.84;1821392;79;21507;-62
2022/05/26 04:35:04;;;;;;;15.83;14.13;;;;;;;17.11;83.09;95785.05;1820989;79;21054;-62
2022/05/26 04:37:31;;;;;;;15.78;14.10;;;;;;;17.15;82.65;95789.34;1821448;79;21002;-62
2022/05/26 04:39:58;;;;;;;17.42;14.55;;;;;;;17.22;83.15;95794.35;1820908;79;21026;-63
2022/05/26 04:42:26;;;;;;;15.32;13.15;;;;;;;17.29;82.56;95790.97;1821278;79;20982;-62
2022/05/26 04:44:53;;;;;;;14.00;12.43;;;;;;;17.38;82.23;95791.90;1824753;78;20962;-62
2022/05/26 04:47:20;;;;;;;18.80;13.48;;;;;;;17.46;81.65;95792.47;1826312;78;21519;-62
2022/05/26 04:49:47;;;;;;;15.60;13.43;;;;;;;17.51;80.88;95793.14;1825833;78;21511;-62
2022/05/26 04:52:18;;;;;;;16.57;14.45;;;;;;;17.53;80.17;95793.05;1826370;78;20998;-62
2022/05/26 04:54:46;;;;;;;17.10;13.90;;;;;;;17.56;79.97;95799.58;1825811;78;20967;-63
2022/05/26 04:57:15;;;;;;;16.90;15.13;;;;;;;17.63;79.83;95803.73;1826485;78;21045;-63
2022/05/26 04:59:42;;;;;;;16.42;13.90;;;;;;;17.67;79.56;95809.82;1821050;78;21029;-62
2022/05/26 05:02:14;;;;;;;16.07;14.38;;;;;;;17.66;78.81;95813.41;1826292;78;21041;-62
2022/05/26 05:04:44;;;;;;;19.92;14.63;;;;;;;17.61;78.00;95811.40;1826215;78;21010;-63
2022/05/26 05:07:12;;;;;;;16.30;14.23;;;;;;;17.52;77.83;95822.88;1824259;78;21502;-64
2022/05/26 05:09:39;;;;;;;14.85;13.40;;;;;;;17.51;77.86;95825.16;1825257;78;21049;-67
2022/05/26 05:12:09;;;;;;;13.80;12.35;;;;;;;17.42;77.43;95823.33;1825262;78;21018;-63
2022/05/26 05:14:43;;;;;;;13.83;12.40;;;;;;;17.32;78.11;95823.31;1820836;78;21563;-63
2022/05/26 05:17:11;;;;;;;13.28;11.08;;;;;;;17.34;78.80;95826.31;1826150;78;20978;-66
2022/05/26 05:19:38;;;;;;;13.03;11.20;;;;;;;17.43;78.57;95824.58;1826227;78;21006;-65
2022/05/26 05:22:31;;;;;;;12.58;11.38;;;;;;;17.49;78.17;95830.16;1824860;78;21499;-63
2022/05/26 05:25:03;;;;;;;13.25;11.85;;;;;;;17.56;78.87;95832.94;1826053;78;21057;-65
2022/05/26 05:27:41;;;;;;;13.13;11.55;;;;;;;17.65;77.91;95845.89;1826220;78;21021;-64
2022/05/26 05:30:19;;;;;;;14.03;12.37;;;;;;;17.51;77.30;95850.50;1825858;78;21483;-65
2022/05/26 05:33:03;;;;;;;11.57;10.18;;;;;;;17.39;77.57;95851.47;1825158;78;21010;-64
2022/05/26 05:35:40;;;;;;;10.28;7.80;;;;;;;17.29;77.26;95858.51;1825914;78;21010;-63
2022/05/26 05:38:07;;;;;;;8.20;7.30;;;;;;;17.29;76.54;95858.98;1824811;78;20966;-64
2022/05/26 05:40:35;;;;;;;11.78;7.90;;;;;;;17.29;75.57;95873.17;1824010;78;21125;-64
2022/05/26 05:43:03;;;;;;;10.55;6.75;;;;;;;17.35;75.50;95870.72;1825894;78;20975;-68
2022/05/26 05:45:30;;;;;;;5.80;5.30;;;;;;;17.39;74.75;95878.14;1820866;78;21022;-66
2022/05/26 05:47:57;;;;;;;5.60;5.00;;;;;;;17.34;73.89;95883.66;1821199;79;21013;-67
2022/05/26 05:50:24;;;;;;;5.75;5.00;;;;;;;17.32;73.39;95893.52;1820338;79;21523;-64
2022/05/26 05:52:50;;;;;;;7.03;5.25;;;;;;;17.27;73.28;95897.70;1820966;79;21069;-64
2022/05/26 05:55:17;;;;;;;7.58;4.97;;;;;;;17.22;73.52;95905.48;1820253;79;21066;-64
2022/05/26 05:57:45;;;;;;;5.75;4.42;;;;;;;17.19;73.50;95905.61;1819592;79;21049;-64
2022/05/26 06:00:13;;;;;;;7.12;4.90;;;;;;;17.15;73.14;95908.84;1818689;79;20997;-64
2022/05/26 06:02:41;;;;;;;6.50;4.95;;;;;;;17.12;72.34;95914.31;1815311;79;21001;-65
2022/05/26 06:05:09;;;;;;;5.85;4.67;;;;;;;17.04;71.74;95920.41;1818474;79;21159;-65
2022/05/26 06:07:38;;;;;;;5.53;4.22;;;;;;;16.88;72.21;95916.11;1820805;79;21001;-65
2022/05/26 06:10:10;;;;;;;6.22;4.90;;;;;;;16.90;72.99;95921.39;1819692;79;21484;-65
2022/05/26 06:12:38;;;;;;;8.03;4.85;;;;;;;16.93;72.71;95924.80;1819907;79;20999;-64
2022/05/26 06:15:06;;;;;;;5.10;4.53;;;;;;;17.02;73.10;95931.13;1821163;79;21023;-64
2022/05/26 06:17:34;;;;;;;10.80;5.28;;;;;;;17.14;72.80;95932.45;1820613;79;21034;-66
2022/05/26 06:20:01;;;;;;;6.00;5.05;;;;;;;17.35;73.48;95938.73;1809328;79;20985;-65
2022/05/26 06:22:29;;;;;;;6.00;4.50;;;;;;;17.66;72.88;95938.34;1808553;79;21009;-64
2022/05/26 06:24:56;;;;;;;6.75;4.50;;;;;;;17.87;71.28;95933.11;1809152;79;21025;-65
2022/05/26 06:30:13;;;;;;;7.25;4.50;;;;;;;18.30;70.70;95933.95;1809202;79;21052;-65
2022/05/26 06:38:23;;;;;;;6.58;4.87;;;;;;;18.04;69.30;95945.29;1809456;79;21069;-64
2022/05/26 06:40:51;;;;;;;5.00;4.22;;;;;;;18.15;69.59;95952.36;1807950;78;21048;-66
2022/05/26 06:43:19;;;;;;;6.85;4.50;;;;;;;18.16;69.17;95951.89;1792003;79;21474;-65
2022/05/26 06:45:48;;;;;;;6.83;4.78;;;;;;;18.24;69.17;95951.08;1783873;80;21026;-66
2022/05/26 06:48:16;;;;;;;8.93;4.35;;;;;;;18.16;68.52;95966.11;1813272;78;20951;-66
2022/05/26 06:50:42;;;;;;;4.45;3.52;;;;;;;18.34;67.80;95964.91;1823512;78;21610;-65
2022/05/26 06:53:10;;;;;;;5.53;3.70;;;;;;;18.45;67.76;95964.47;1824710;78;21531;-67
2022/05/26 06:55:37;;;;;;;4.47;3.58;;;;;;;18.47;67.62;95966.58;1825001;78;21504;-65
2022/05/26 06:58:03;;;;;;;5.95;3.47;;;;;;;18.53;67.16;95968.53;1825067;78;21045;-66
2022/05/26 07:00:30;;;;;;;8.90;3.37;;;;;;;18.60;66.54;95971.81;1820316;78;21500;-64
2022/05/26 07:02:56;;;;;;;3.50;3.20;;;;;;;18.72;66.59;95968.59;1825168;78;21034;-63
2022/05/26 07:05:23;;;;;;;4.58;2.62;;;;;;;18.87;66.47;95971.53;1823384;78;20977;-64
2022/05/26 07:07:50;;;;;;;4.58;2.92;;;;;;;18.95;65.49;95978.28;1811810;78;20962;-64
2022/05/26 07:10:16;;;;;;;5.05;2.58;;;;;;;19.17;66.06;95974.61;1808739;79;21010;-64
2022/05/26 07:12:43;;;;;;;2.50;2.20;;;;;;;19.33;64.63;95972.11;1809636;79;21032;-64
2022/05/26 07:15:11;;;;;;;2.45;1.87;;;;;;;19.35;61.33;95971.53;1809728;79;21066;-64
2022/05/26 07:17:38;;;;;;;2.05;1.62;;;;;;;19.42;61.19;95979.20;1809168;79;20989;-64
2022/05/26 07:20:07;;;;;;;2.17;1.60;;;;;;;19.52;61.37;95978.30;1819978;78;21023;-64
2022/05/26 07:22:34;;;;;;;3.05;1.95;;;;;;;19.60;59.67;95984.14;1825095;78;21112;-63
2022/05/26 07:25:00;;;;;;;4.95;2.02;;;;;;;19.76;61.58;95987.00;1825085;78;21096;-63
2022/05/26 07:27:27;;;;;;;3.22;1.90;;;;;;;19.95;61.54;95992.79;1825976;78;21001;-64
2022/05/26 07:29:54;;;;;;;2.98;1.50;;;;;;;20.03;59.48;95992.82;1826133;78;21003;-65
2022/05/26 07:32:20;;;;;;;1.82;1.60;;;;;;;19.91;57.50;96000.56;1823359;78;21495;-68
2022/05/26 07:34:47;;;;;;;2.27;2.08;;;;;;;19.92;58.66;96002.32;1825300;78;21069;-65
2022/05/26 07:42:45;;;;;;;2.65;1.57;;;;;;;19.58;58.17;96006.13;1826429;78;20994;-66
2022/05/26 07:45:13;;;;;;;2.35;1.80;;;;;;;19.65;57.55;96003.56;1827754;78;21097;-66
2022/05/26 07:47:40;;;;;;;2.40;1.55;;;;;;;19.60;57.03;96004.22;1831557;78;21041;-67
2022/05/26 07:50:11;;;;;;;3.90;1.50;;;;;;;19.62;57.53;96008.17;1831426;78;21006;-64
2022/05/26 07:52:38;;;;;;;2.47;2.08;;;;;;;19.63;57.08;96005.88;1831813;78;21033;-62
2022/05/26 07:55:07;;;;;;;2.35;1.70;;;;;;;19.70;58.75;96010.03;1821375;78;20969;-62
2022/05/26 07:57:34;;;;;;;4.50;1.80;;;;;;;19.83;58.17;96007.19;1812418;79;21530;-63
2022/05/26 08:00:01;;;;;;;3.02;1.60;;;;;;;19.97;58.08;96013.20;1811862;79;21052;-63
2022/05/26 08:02:29;;;;;;;3.98;1.52;;;;;;;19.96;56.41;96007.45;1812004;79;21495;-63
2022/05/26 08:04:56;;;;;;;3.02;1.50;;;;;;;20.12;55.95;96010.72;1813330;79;21010;-62
2022/05/26 08:07:23;;;;;;;3.98;1.32;;;;;;;20.27;54.92;96012.63;1813312;79;21006;-62
2022/05/26 08:09:50;;;;;;;1.30;1.20;;;;;;;20.36;54.89;96009.49;1813680;78;21029;-63
2022/05/26 08:12:17;;;;;;;2.58;1.32;;;;;;;20.50;55.05;96017.67;1826262;78;21653;-61
2022/05/26 08:14:45;;;;;;;1.45;1.10;;;;;;;20.60;54.02;96019.93;1811275;79;21101;-61
2022/05/26 08:17:13;;;;;;;3.10;1.45;;;;;;;20.58;52.66;96021.81;1812383;79;20978;-61
2022/05/26 08:19:41;;;;;;;3.77;1.20;;;;;;;20.69;51.90;96021.67;1815311;78;21029;-63
2022/05/26 08:22:08;;;;;;;3.10;1.40;;;;;;;20.80;51.12;96026.95;1829286;78;20966;-63
2022/05/26 08:24:34;;;;;;;1.30;1.20;;;;;;;20.97;52.46;96018.88;1830468;78;21531;-63
2022/05/26 08:27:01;;;;;;;5.47;1.55;;;;;;;21.07;52.60;96015.24;1815660;78;20977;-65
2022/05/26 08:29:27;;;;;;;4.67;1.30;;;;;;;20.99;51.25;96025.48;1828804;78;21116;-63
2022/05/26 08:31:54;;;;;;;1.10;1.10;;;;;;;21.10;52.98;96033.38;1831201;78;21069;-63
2022/05/26 08:34:20;;;;;;;3.10;1.00;;;;;;;21.26;50.50;96037.92;1831399;78;21010;-62
2022/05/26 08:36:48;;;;;;;2.62;1.40;;;;;;;21.47;50.27;96038.14;1831912;78;21487;-62
2022/05/26 08:39:16;;;;;;;2.42;1.10;;;;;;;21.61;49.79;96032.86;1831733;78;21029;-63
2022/05/26 08:41:50;;;;;;;2.37;1.10;;;;;;;21.76;49.04;96038.34;1831664;78;21046;-62
2022/05/26 08:44:34;;;;;;;1.15;1.02;;;;;;;21.71;48.85;96035.91;1831946;78;20990;-62
2022/05/26 08:47:15;;;;;;;2.75;1.00;;;;;;;21.49;47.62;96044.75;1831979;78;21002;-62
2022/05/26 08:49:46;;;;;;;1.57;0.85;;;;;;;21.08;47.70;96043.80;1831686;78;21045;-62
2022/05/26 08:52:20;;;;;;;4.33;1.10;;;;;;;20.72;48.16;96055.50;1831633;78;21049;-63
2022/05/26 08:54:58;;;;;;;1.20;1.02;;;;;;;20.58;49.54;96052.65;1823884;78;21013;-62
2022/05/26 08:57:53;;;;;;;1.07;0.98;;;;;;;20.80;49.55;96051.94;1830844;78;21044;-62
2022/05/26 09:00:23;;;;;;;1.05;1.00;;;;;;;21.11;49.17;96049.85;1830208;78;22238;-62
2022/05/26 09:02:58;;;;;;;1.52;0.98;;;;;;;21.09;46.97;96053.56;1831459;78;20958;-62
2022/05/26 09:05:26;;;;;;;1.10;0.90;;;;;;;20.68;46.59;96061.95;1831460;78;21060;-62
2022/05/26 09:13:56;;;;;;;;;;;;;;;21.09;47.84;96073.23;1834631;78;20978;-62
2022/05/26 09:16:23;;;;;;;2.65;0.85;;;;;;;21.30;46.38;96064.99;1831825;78;20090;-62
2022/05/26 09:19:11;;;;;;;0.68;0.62;;;;;;;21.61;46.18;96077.16;1828369;78;21474;-62
2022/05/26 09:21:39;;;;;;;1.30;0.75;;;;;;;21.66;42.32;96076.06;1792153;80;21030;-62
2022/05/26 09:24:41;;;;;;;1.32;0.88;;;;;;;21.69;41.38;96067.83;1793524;80;20971;-61
2022/05/26 09:27:29;;;;;;;3.92;0.95;;;;;;;21.62;42.43;96060.61;1791055;80;21058;-62
2022/05/26 09:30:25;;;;;;;2.72;0.95;;;;;;;22.03;45.32;96063.66;1792737;80;21054;-62
2022/05/26 09:32:52;;;;;;;0.90;0.80;;;;;;;22.13;46.47;96069.86;1793173;80;21029;-62
2022/05/26 09:35:25;;;;;;;1.30;0.70;;;;;;;22.25;42.58;96074.55;1815988;78;20978;-62
2022/05/26 09:37:57;;;;;;;1.15;0.85;;;;;;;22.24;39.63;96069.66;1832117;78;21006;-62
2022/05/26 09:40:40;;;;;;;1.05;0.90;;;;;;;22.32;40.65;96068.35;1831969;78;21476;-62
2022/05/26 09:43:19;;;;;;;1.55;1.00;;;;;;;22.36;40.01;96069.44;1826189;78;21065;-62
2022/05/26 09:45:52;;;;;;;3.98;0.90;;;;;;;22.51;40.01;96070.38;1818378;78;20981;-62
2022/05/26 09:48:35;;;;;;;1.20;1.10;;;;;;;22.64;39.84;96069.17;1821828;78;20997;-63
2022/05/26 09:51:22;;;;;;;1.42;0.80;;;;;;;22.66;38.90;96065.92;1817428;78;20986;-62
2022/05/26 09:53:53;;;;;;;1.32;0.88;;;;;;;22.71;40.79;96079.11;1829395;78;21068;-62
2022/05/26 09:56:41;;;;;;;1.20;0.90;;;;;;;22.74;40.03;96074.88;1825022;78;20970;-62
2022/05/26 09:59:31;;;;;;;2.12;1.32;;;;;;;22.52;35.97;96080.16;1810288;79;20982;-62
2022/05/26 10:02:08;;;;;;;2.30;1.72;;;;;;;22.55;37.90;96081.31;1810571;79;21056;-62
2022/05/26 10:04:55;;;;;;;1.95;1.75;;;;;;;22.74;38.98;96078.91;1804671;79;21538;-62
2022/05/26 10:07:33;;;;;;;80.22;33.25;;;;;;;22.95;38.05;96076.27;1810490;79;21100;-62
2022/05/26 10:10:33;;;;;;;10.85;3.50;;;;;;;22.63;39.23;96076.87;1808742;79;21065;-62
2022/05/26 10:13:42;;;;;;;9.13;2.98;;;;;;;22.50;39.86;96090.61;1809720;79;20985;-62
2022/05/26 10:16:49;;;;;;;3.05;1.15;;;;;;;22.73;40.61;96084.78;1809557;79;21026;-62
2022/05/26 10:19:53;;;;;;;4.78;1.80;;;;;;;22.95;39.11;96078.11;1809683;79;21029;-62
2022/05/26 10:22:34;;;;;;;2.45;0.95;;;;;;;23.26;39.48;96069.95;1793982;79;21083;-62
2022/05/26 10:25:39;;;;;;;2.27;1.05;;;;;;;23.35;38.12;96068.98;1810454;79;20985;-62
2022/05/26 10:28:56;;;;;;;4.42;1.87;;;;;;;23.51;38.14;96072.45;1810685;79;21010;-62
2022/05/26 10:31:53;;;;;;;1.10;0.60;;;;;;;23.59;39.28;96089.02;1809616;79;20998;-62
2022/05/26 10:35:07;;;;;;;1.40;0.75;;;;;;;23.25;32.61;96072.23;1810786;79;21582;-62
2022/05/26 10:38:08;;;;;;;4.83;0.70;;;;;;;23.35;32.91;96077.92;1810330;79;21590;-62
2022/05/26 10:40:52;;;;;;;1.32;0.60;;;;;;;23.41;33.77;96088.34;1810718;79;21014;-62
2022/05/26 10:43:33;;;;;;;0.50;0.50;;;;;;;23.46;34.71;96082.64;1810177;79;21005;-62
2022/05/26 10:46:00;;;;;;;1.50;0.80;;;;;;;23.66;33.21;96085.44;1809851;79;21046;-62
2022/05/26 10:49:00;;;;;;;2.85;1.80;;;;;;;23.88;33.89;96086.34;1809907;79;21040;-62
2022/05/26 10:51:35;;;;;;;1.32;0.80;;;;;;;24.14;33.35;96087.34;1809950;79;20974;-62
2022/05/26 10:54:07;;;;;;;1.57;0.70;;;;;;;24.32;28.78;96088.88;1809793;79;21006;-62
2022/05/26 10:57:04;;;;;;;2.12;0.70;;;;;;;24.16;32.84;96087.63;1809330;79;21931;-62
2022/05/26 10:59:39;;;;;;;0.60;0.60;;;;;;;24.15;31.42;96091.80;1809988;79;21006;-63
2022/05/26 11:02:29;;;;;;;1.87;0.60;;;;;;;24.22;32.38;96094.94;1810251;79;21074;-62
2022/05/26 11:05:04;;;;;;;4.97;0.80;;;;;;;24.20;29.71;96096.41;1782434;79;21503;-62
2022/05/26 11:07:56;;;;;;;0.72;0.70;;;;;;;23.99;34.96;96085.19;1809424;79;21034;-62
2022/05/26 11:10:28;;;;;;;1.75;0.70;;;;;;;24.03;31.13;96081.80;1810331;79;21013;-62
2022/05/26 11:13:17;;;;;;;0.55;0.50;;;;;;;24.02;31.61;96082.29;1809492;79;21041;-62
2022/05/26 11:18:58;;;;;;;1.82;0.50;;;;;;;23.94;31.02;96079.23;1793885;79;21065;-62
2022/05/26 11:21:24;;;;;;;2.67;0.80;;;;;;;23.78;29.75;96082.01;1809125;79;20999;-62
2022/05/26 11:23:52;;;;;;;3.42;0.60;;;;;;;24.10;31.09;96079.09;1809961;79;20980;-62
2022/05/26 11:26:30;;;;;;;1.17;0.70;;;;;;;24.04;30.09;96079.48;1810052;79;21424;-62
2022/05/26 11:29:02;;;;;;;1.50;0.60;;;;;;;24.10;30.33;96084.00;1809032;79;21568;-62
2022/05/26 11:37:34;;;;;;;2.35;0.42;;;;;;;24.62;28.14;96073.02;1810227;79;21487;-62
2022/05/26 11:40:09;;;;;;;0.95;0.62;;;;;;;24.41;27.16;96080.64;1809960;79;21480;-62
2022/05/26 11:42:40;;;;;;;0.75;0.70;;;;;;;24.41;28.02;96084.69;1810099;79;21551;-62
2022/05/26 11:45:29;;;;;;;2.02;0.70;;;;;;;24.49;27.43;96082.38;1807964;79;21563;-62
2022/05/26 11:48:05;;;;;;;1.12;0.50;;;;;;;24.61;27.12;96069.91;1810284;79;20990;-62
2022/05/26 11:50:59;;;;;;;0.80;0.50;;;;;;;24.94;28.93;96072.66;1810212;79;20973;-62
2022/05/26 11:53:45;;;;;;;0.50;0.50;;;;;;;25.13;25.69;96074.98;1810001;79;21502;-62
2022/05/26 11:56:35;;;;;;;2.92;0.70;;;;;;;25.34;27.59;96072.64;1810188;79;21057;-62
2022/05/26 11:59:23;;;;;;;1.20;0.53;;;;;;;25.46;26.52;96074.00;1811902;78;21091;-62
2022/05/26 12:02:08;;;;;;;3.33;0.60;;;;;;;25.69;27.69;96083.67;1825805;78;21029;-63
2022/05/26 12:04:40;;;;;;;2.87;0.50;;;;;;;25.96;27.14;96081.37;1826248;78;20993;-62
2022/05/26 12:07:21;;;;;;;4.87;0.78;;;;;;;26.28;25.66;96077.17;1826347;78;20986;-62
2022/05/26 12:09:57;;;;;;;3.67;0.70;;;;;;;26.26;26.01;96075.06;1826158;78;21416;-62
2022/05/26 12:12:33;;;;;;;0.50;0.50;;;;;;;26.22;25.72;96074.05;1825692;78;21516;-62
2022/05/26 12:15:06;;;;;;;2.35;0.62;;;;;;;25.97;25.34;96077.67;1826434;78;20985;-62
2022/05/26 12:17:41;;;;;;;3.27;0.70;;;;;;;26.28;27.20;96079.88;1786060;80;21058;-62
2022/05/26 12:20:16;;;;;;;4.87;0.70;;;;;;;26.69;29.72;96075.11;1781923;80;21108;-62
2022/05/26 12:22:57;;;;;;;1.40;0.60;;;;;;;26.99;26.01;96063.80;1744817;82;20992;-62
2022/05/26 12:25:36;;;;;;;0.70;0.60;;;;;;;27.11;26.36;96070.09;1753192;81;21505;-62
2022/05/26 12:28:29;;;;;;;2.42;0.70;;;;;;;27.21;27.51;96068.92;1754534;81;21062;-62
2022/05/26 12:31:01;;;;;;;0.60;0.50;;;;;;;27.10;25.13;96063.81;1754818;81;21043;-62
2022/05/26 12:33:55;;;;;;;6.03;0.75;;;;;;;27.49;27.18;96060.35;1754753;81;21068;-62
2022/05/26 12:36:52;;;;;;;1.65;0.70;;;;;;;27.92;26.73;96057.46;1754637;81;21011;-62
2022/05/26 12:39:36;;;;;;;1.02;0.60;;;;;;;27.89;27.11;96055.00;1754084;81;21039;-62
2022/05/26 12:42:11;;;;;;;6.80;0.60;;;;;;;28.09;26.16;96058.31;1748070;81;20963;-63